createdAt,value
2022-09-09T00:01:59.531Z,17.95
2022-09-09T00:04:36.698Z,17.94
2022-09-09T00:07:18.826Z,17.93
2022-09-09T00:10:01.721Z,17.93
2022-09-09T00:12:42.993Z,17.91
2022-09-09T00:15:21.660Z,17.90
2022-09-09T00:18:00.207Z,17.88
2022-09-09T00:20:38.333Z,17.88
2022-09-09T00:23:22.224Z,17.86
2022-09-09T00:26:02.268Z,17.85
2022-09-09T00:28:41.224Z,17.81
2022-09-09T00:31:17.699Z,17.79
2022-09-09T00:33:51.675Z,17.79
2022-09-09T00:36:27.441Z,17.78
2022-09-09T00:39:02.956Z,17.77
2022-09-09T00:41:44.814Z,17.73
2022-09-09T00:44:30.492Z,17.69
2022-09-09T00:47:15.043Z,17.65
2022-09-09T00:50:02.902Z,17.61
2022-09-09T00:52:49.073Z,17.57
2022-09-09T00:55:30.787Z,17.56
2022-09-09T00:58:03.465Z,17.53
2022-09-09T01:00:43.806Z,17.52
2022-09-09T01:03:25.119Z,17.51
2022-09-09T01:06:14.315Z,17.47
2022-09-09T01:09:07.238Z,17.43
2022-09-09T01:11:52.132Z,17.42
2022-09-09T01:14:36.201Z,17.40
2022-09-09T01:17:17.500Z,17.38
2022-09-09T01:20:08.528Z,17.36
2022-09-09T01:23:02.819Z,17.35
2022-09-09T01:26:22.291Z,17.33
2022-09-09T01:28:55.662Z,17.30
2022-09-09T01:31:38.774Z,17.28
2022-09-09T01:34:15.638Z,17.26
2022-09-09T01:36:55.212Z,17.25
2022-09-09T01:39:29.717Z,17.21
2022-09-09T01:42:11.831Z,17.18
2022-09-09T01:44:44.302Z,17.14
2022-09-09T01:47:16.875Z,17.11
2022-09-09T01:50:13.435Z,17.06
2022-09-09T01:52:48.426Z,17.00
2022-09-09T01:55:30.940Z,16.97
2022-09-09T01:58:16.773Z,16.95
2022-09-09T02:01:04.288Z,16.92
2022-09-09T02:03:37.483Z,16.89
2022-09-09T02:06:28.599Z,16.89
2022-09-09T02:09:08.557Z,16.90
2022-09-09T02:11:40.676Z,16.86
2022-09-09T02:14:26.404Z,16.83
2022-09-09T02:17:08.268Z,16.84
2022-09-09T02:20:12.929Z,16.89
2022-09-09T02:23:06.535Z,16.92
2022-09-09T02:25:42.680Z,16.94
2022-09-09T02:28:25.163Z,16.97
2022-09-09T02:30:59.692Z,16.99
2022-09-09T02:33:50.569Z,17.01
2022-09-09T02:36:25.759Z,17.02
2022-09-09T02:38:58.502Z,17.04
2022-09-09T02:41:37.032Z,17.05
2022-09-09T02:44:15.055Z,17.04
2022-09-09T02:47:14.033Z,17.04
2022-09-09T02:49:54.472Z,17.03
2022-09-09T02:52:35.632Z,17.06
2022-09-09T02:55:14.035Z,17.07
2022-09-09T02:57:49.409Z,17.05
2022-09-09T03:00:29.347Z,17.04
2022-09-09T03:03:04.939Z,17.05
2022-09-09T03:05:39.708Z,17.06
2022-09-09T03:08:15.350Z,17.08
2022-09-09T03:10:48.556Z,17.07
2022-09-09T03:13:20.741Z,17.07
2022-09-09T03:15:53.560Z,17.08
2022-09-09T03:18:26.600Z,17.10
2022-09-09T03:21:00.755Z,17.11
2022-09-09T03:23:32.896Z,17.12
2022-09-09T03:26:06.751Z,17.13
2022-09-09T03:28:46.598Z,17.14
2022-09-09T03:31:21.894Z,17.14
2022-09-09T03:33:54.073Z,17.15
2022-09-09T03:36:27.371Z,17.16
2022-09-09T03:39:00.260Z,17.16
2022-09-09T03:41:33.847Z,17.17
2022-09-09T03:44:06.583Z,17.19
2022-09-09T03:46:42.981Z,17.19
2022-09-09T03:49:16.339Z,17.20
2022-09-09T03:51:48.815Z,17.20
2022-09-09T03:54:21.767Z,17.19
2022-09-09T03:56:54.010Z,17.19
2022-09-09T03:59:26.512Z,17.19
2022-09-09T04:02:02.670Z,17.20
2022-09-09T04:04:35.089Z,17.19
2022-09-09T04:07:08.384Z,17.17
2022-09-09T04:09:40.770Z,17.12
2022-09-09T04:12:14.323Z,17.09
2022-09-09T04:14:48.915Z,17.07
2022-09-09T04:17:21.640Z,17.05
2022-09-09T04:19:57.169Z,17.03
2022-09-09T04:22:29.334Z,16.98
2022-09-09T04:25:01.973Z,16.92
2022-09-09T04:27:35.145Z,16.86
2022-09-09T04:30:08.905Z,16.84
2022-09-09T04:32:42.332Z,16.79
2022-09-09T04:35:15.401Z,16.77
2022-09-09T04:37:47.635Z,16.74
2022-09-09T04:40:19.961Z,16.72
2022-09-09T04:42:52.805Z,16.68
2022-09-09T04:45:25.163Z,16.65
2022-09-09T04:48:00.343Z,16.63
2022-09-09T04:50:32.865Z,16.59
2022-09-09T04:53:07.989Z,16.57
2022-09-09T04:55:40.971Z,16.54
2022-09-09T04:58:13.127Z,16.52
2022-09-09T05:00:45.414Z,16.51
2022-09-09T05:03:19.093Z,16.49
2022-09-09T05:05:52.797Z,16.47
2022-09-09T05:08:25.062Z,16.46
2022-09-09T05:11:00.378Z,16.45
2022-09-09T05:13:36.368Z,16.47
2022-09-09T05:16:12.405Z,16.49
2022-09-09T05:18:45.648Z,16.51
2022-09-09T05:21:21.317Z,16.52
2022-09-09T05:23:53.489Z,16.53
2022-09-09T05:26:26.315Z,16.57
2022-09-09T05:29:00.193Z,16.62
2022-09-09T05:31:34.069Z,16.64
2022-09-09T05:34:10.176Z,16.66
2022-09-09T05:36:42.361Z,16.69
2022-09-09T05:39:14.907Z,16.74
2022-09-09T05:41:47.050Z,16.80
2022-09-09T05:44:20.313Z,16.84
2022-09-09T05:46:52.705Z,16.90
2022-09-09T05:49:25.839Z,16.94
2022-09-09T05:52:01.306Z,16.96
2022-09-09T05:54:33.941Z,17.01
2022-09-09T05:57:07.023Z,17.07
2022-09-09T06:00:22.701Z,17.16
2022-09-09T06:02:56.042Z,17.25
2022-09-09T06:05:29.448Z,17.36
2022-09-09T06:08:02.733Z,17.49
2022-09-09T06:10:36.251Z,17.62
2022-09-09T06:13:10.995Z,17.77
2022-09-09T06:15:53.645Z,17.90
2022-09-09T06:18:25.953Z,18.04
2022-09-09T06:21:01.709Z,18.10
2022-09-09T06:23:36.114Z,18.20
2022-09-09T06:26:13.154Z,18.35
2022-09-09T06:28:46.615Z,18.51
2022-09-09T06:31:24.108Z,18.67
2022-09-09T06:34:00.730Z,18.86
2022-09-09T06:36:34.233Z,19.02
2022-09-09T06:39:10.970Z,19.18
2022-09-09T06:41:46.110Z,19.34
2022-09-09T06:44:44.305Z,19.49
2022-09-09T06:47:21.835Z,19.62
2022-09-09T06:49:54.559Z,19.73
2022-09-09T06:52:26.951Z,19.87
2022-09-09T06:55:02.744Z,19.93
2022-09-09T06:57:37.692Z,20.00
2022-09-09T07:00:22.950Z,20.10
2022-09-09T07:02:56.773Z,20.19
2022-09-09T07:05:28.943Z,20.33
2022-09-09T07:08:01.341Z,20.42
2022-09-09T07:10:35.325Z,20.40
2022-09-09T07:13:08.711Z,20.48
2022-09-09T07:15:40.987Z,20.57
2022-09-09T07:18:13.499Z,20.56
2022-09-09T07:20:54.459Z,20.68
2022-09-09T07:23:27.021Z,20.77
2022-09-09T07:26:01.114Z,20.89
2022-09-09T07:28:33.738Z,20.99
2022-09-09T07:31:07.618Z,21.09
2022-09-09T07:33:41.860Z,21.22
2022-09-09T07:36:18.581Z,21.33
2022-09-09T07:38:53.715Z,21.41
2022-09-09T07:41:27.473Z,21.43
2022-09-09T07:44:01.242Z,21.58
2022-09-09T07:46:33.593Z,21.73
2022-09-09T07:49:06.472Z,21.96
2022-09-09T07:51:42.910Z,22.17
2022-09-09T07:54:18.394Z,22.34
2022-09-09T07:56:50.681Z,22.46
2022-09-09T07:59:23.332Z,22.64
2022-09-09T08:01:57.794Z,22.79
2022-09-09T08:04:33.144Z,22.87
2022-09-09T08:07:07.325Z,22.95
2022-09-09T08:09:44.950Z,23.06
2022-09-09T08:12:26.484Z,23.23
2022-09-09T08:14:58.681Z,23.39
2022-09-09T08:17:33.980Z,23.51
2022-09-09T08:20:10.399Z,23.63
2022-09-09T08:22:43.101Z,23.70
2022-09-09T08:25:18.651Z,23.83
2022-09-09T08:27:51.233Z,24.02
2022-09-09T08:30:23.403Z,24.23
2022-09-09T08:32:58.417Z,24.40
2022-09-09T08:35:33.905Z,24.60
2022-09-09T08:38:10.763Z,24.57
2022-09-09T08:40:50.484Z,24.63
2022-09-09T08:43:25.880Z,24.72
2022-09-09T08:46:06.683Z,24.78
2022-09-09T08:48:53.261Z,24.74
2022-09-09T08:51:27.919Z,24.77
2022-09-09T08:54:01.739Z,24.84
2022-09-09T08:56:36.264Z,24.82
2022-09-09T08:59:12.905Z,24.64
2022-09-09T09:01:57.374Z,24.55
2022-09-09T09:05:03.821Z,24.44
2022-09-09T09:07:50.532Z,24.45
2022-09-09T09:10:42.990Z,24.66
2022-09-09T09:13:27.804Z,24.90
2022-09-09T09:16:10.382Z,25.16
2022-09-09T09:18:43.372Z,25.42
2022-09-09T09:21:19.817Z,25.49
2022-09-09T09:23:58.879Z,25.37
2022-09-09T09:26:36.619Z,25.32
2022-09-09T09:29:16.314Z,25.36
2022-09-09T09:31:53.469Z,25.39
2022-09-09T09:34:26.214Z,25.25
2022-09-09T09:37:02.802Z,25.00
2022-09-09T09:42:33.205Z,24.91
2022-09-09T09:46:06.953Z,24.79
2022-09-09T09:48:39.681Z,24.53
2022-09-09T09:51:20.404Z,24.28
2022-09-09T09:53:54.869Z,24.01
2022-09-09T09:56:36.071Z,23.85
2022-09-09T09:59:38.593Z,23.82
2022-09-09T10:02:26.043Z,23.96
2022-09-09T10:05:26.547Z,24.07
2022-09-09T10:08:12.404Z,24.09
2022-09-09T10:11:04.364Z,24.05
2022-09-09T10:13:46.576Z,24.03
2022-09-09T10:16:32.126Z,24.02
2022-09-09T10:19:07.776Z,23.98
2022-09-09T10:22:05.711Z,23.97
2022-09-09T10:24:52.476Z,23.86
2022-09-09T10:27:30.999Z,23.87
2022-09-09T10:30:13.552Z,23.95
2022-09-09T10:32:52.334Z,23.93
2022-09-09T10:35:32.898Z,23.92
2022-09-09T10:38:18.820Z,23.89
2022-09-09T10:41:12.333Z,23.82
2022-09-09T10:44:00.489Z,23.85
2022-09-09T10:46:47.941Z,23.91
2022-09-09T10:49:31.835Z,23.95
2022-09-09T10:52:09.999Z,23.90
2022-09-09T10:54:56.306Z,23.85
2022-09-09T10:57:37.667Z,23.87
2022-09-09T11:04:33.449Z,23.82
2022-09-09T11:07:12.103Z,23.70
2022-09-09T11:09:50.637Z,23.64
2022-09-09T11:12:23.253Z,23.73
2022-09-09T11:15:01.581Z,23.76
2022-09-09T11:17:43.135Z,23.74
2022-09-09T11:20:17.594Z,23.76
2022-09-09T11:22:58.145Z,23.81
2022-09-09T11:25:35.832Z,23.87
2022-09-09T11:28:32.351Z,23.89
2022-09-09T11:31:18.177Z,23.83
2022-09-09T11:34:09.536Z,23.75
2022-09-09T11:37:07.970Z,23.74
2022-09-09T11:39:55.882Z,23.83
2022-09-09T11:42:30.380Z,23.87
2022-09-09T11:45:14.101Z,23.88
2022-09-09T11:47:58.786Z,23.83
2022-09-09T11:50:41.239Z,23.73
2022-09-09T11:53:26.477Z,23.69
2022-09-09T11:56:08.436Z,23.65
2022-09-09T11:58:55.492Z,23.67
2022-09-09T12:01:43.802Z,23.67
2022-09-09T12:04:38.101Z,23.69
2022-09-09T12:07:34.209Z,23.70
2022-09-09T12:10:22.578Z,23.72
2022-09-09T12:12:54.866Z,23.67
2022-09-09T12:15:31.183Z,23.67
2022-09-09T12:18:03.786Z,23.68
2022-09-09T12:20:41.676Z,23.66
2022-09-09T12:23:30.314Z,23.62
2022-09-09T12:26:30.577Z,23.64
2022-09-09T12:29:14.704Z,23.69
2022-09-09T12:31:58.284Z,23.63
2022-09-09T12:34:40.282Z,23.52
2022-09-09T12:37:23.031Z,23.40
2022-09-09T12:39:58.453Z,23.36
2022-09-09T12:42:31.501Z,23.42
2022-09-09T12:45:07.500Z,23.48
2022-09-09T12:47:46.973Z,23.54
2022-09-09T12:50:29.861Z,23.56
2022-09-09T12:53:04.250Z,23.62
2022-09-09T12:55:40.318Z,23.65
2022-09-09T12:58:19.228Z,23.57
2022-09-09T13:00:57.529Z,23.56
2022-09-09T13:03:30.610Z,23.57
2022-09-09T13:06:15.350Z,23.63
2022-09-09T13:08:51.101Z,23.63
2022-09-09T13:11:27.035Z,23.63
2022-09-09T13:14:01.196Z,23.67
2022-09-09T13:16:41.858Z,23.69
2022-09-09T13:19:19.895Z,23.60
2022-09-09T13:21:52.014Z,23.56
2022-09-09T13:24:33.093Z,23.57
2022-09-09T13:27:06.995Z,23.62
2022-09-09T13:29:40.735Z,23.71
2022-09-09T13:32:20.950Z,23.75
2022-09-09T13:34:57.926Z,23.76
2022-09-09T13:37:37.158Z,23.76
2022-09-09T13:40:22.718Z,23.71
2022-09-09T13:42:59.200Z,23.56
2022-09-09T13:45:31.609Z,23.44
2022-09-09T13:48:14.664Z,23.39
2022-09-09T13:50:57.880Z,23.38
2022-09-09T13:53:33.950Z,23.44
2022-09-09T13:56:07.300Z,23.51
2022-09-09T13:58:39.497Z,23.57
2022-09-09T14:01:12.631Z,23.59
2022-09-09T14:03:45.337Z,23.58
2022-09-09T14:06:17.476Z,23.57
2022-09-09T14:08:53.100Z,23.60
2022-09-09T14:11:25.787Z,23.62
2022-09-09T14:13:58.086Z,23.63
2022-09-09T14:16:30.504Z,23.56
2022-09-09T14:19:02.897Z,23.49
2022-09-09T14:21:35.975Z,23.52
2022-09-09T14:24:08.658Z,23.53
2022-09-09T14:26:40.818Z,23.54
2022-09-09T14:29:13.152Z,23.55
2022-09-09T14:31:45.497Z,23.52
2022-09-09T14:34:17.668Z,23.51
2022-09-09T14:36:52.441Z,23.50
2022-09-09T14:39:24.540Z,23.46
2022-09-09T14:41:57.292Z,23.42
2022-09-09T14:44:29.468Z,23.41
2022-09-09T14:47:01.740Z,23.33
2022-09-09T14:49:33.893Z,23.26
2022-09-09T14:52:07.440Z,23.19
2022-09-09T14:54:39.576Z,23.17
2022-09-09T14:57:11.763Z,23.20
2022-09-09T14:59:43.957Z,23.16
2022-09-09T15:02:16.407Z,23.17
2022-09-09T15:04:50.884Z,23.19
2022-09-09T15:07:23.440Z,23.16
2022-09-09T15:09:58.385Z,23.13
2022-09-09T15:12:31.086Z,23.08
2022-09-09T15:15:03.191Z,23.07
2022-09-09T15:17:36.354Z,23.09
2022-09-09T15:20:10.328Z,23.07
2022-09-09T15:22:43.164Z,22.97
2022-09-09T15:25:16.103Z,22.99
2022-09-09T15:27:50.927Z,22.97
2022-09-09T15:30:23.947Z,22.95
2022-09-09T15:32:56.287Z,22.94
2022-09-09T15:35:28.394Z,22.93
2022-09-09T15:38:06.476Z,22.86
2022-09-09T15:40:38.646Z,22.77
2022-09-09T15:43:14.191Z,22.70
2022-09-09T15:45:48.189Z,22.66
2022-09-09T15:48:20.389Z,22.57
2022-09-09T15:51:24.682Z,22.47
2022-09-09T15:54:02.871Z,22.36
2022-09-09T15:56:35.877Z,22.31
2022-09-09T15:59:08.699Z,22.25
2022-09-09T16:01:45.181Z,22.20
2022-09-09T16:04:24.184Z,22.11
2022-09-09T16:06:59.475Z,21.96
2022-09-09T16:09:32.375Z,21.83
2022-09-09T16:12:08.919Z,21.72
2022-09-09T16:14:41.888Z,21.65
2022-09-09T16:17:15.273Z,21.59
2022-09-09T16:19:47.504Z,21.51
2022-09-09T16:22:20.267Z,21.45
2022-09-09T16:24:52.960Z,21.37
2022-09-09T16:27:25.220Z,21.30
2022-09-09T16:29:57.408Z,21.22
2022-09-09T16:32:29.553Z,21.15
2022-09-09T16:35:04.339Z,21.07
2022-09-09T16:37:38.459Z,21.00
2022-09-09T16:40:12.047Z,20.93
2022-09-09T16:42:44.478Z,20.85
2022-09-09T16:45:16.937Z,20.77
2022-09-09T16:47:49.708Z,20.69
2022-09-09T16:50:22.346Z,20.61
2022-09-09T16:52:55.023Z,20.53
2022-09-09T16:55:27.783Z,20.45
2022-09-09T16:58:00.346Z,20.38
2022-09-09T17:00:33.165Z,20.33
2022-09-09T17:03:06.489Z,20.26
2022-09-09T17:05:48.350Z,20.15
2022-09-09T17:08:20.931Z,20.05
2022-09-09T17:10:55.015Z,19.98
2022-09-09T17:13:27.754Z,19.90
2022-09-09T17:16:03.057Z,19.82
2022-09-09T17:18:35.852Z,19.73
2022-09-09T17:21:09.963Z,19.65
2022-09-09T17:23:42.534Z,19.57
2022-09-09T17:26:23.483Z,19.49
2022-09-09T17:28:59.797Z,19.41
2022-09-09T17:31:42.178Z,19.32
2022-09-09T17:34:19.691Z,19.24
2022-09-09T17:36:54.881Z,19.16
2022-09-09T17:39:27.600Z,19.08
2022-09-09T17:42:00.029Z,19.00
2022-09-09T17:44:35.941Z,18.92
2022-09-09T17:47:10.363Z,18.84
2022-09-09T17:49:43.161Z,18.77
2022-09-09T17:52:18.852Z,18.71
2022-09-09T17:54:52.712Z,18.63
2022-09-09T17:57:25.017Z,18.54
2022-09-09T17:59:59.827Z,18.48
2022-09-09T18:02:41.801Z,18.43
2022-09-09T18:05:16.494Z,18.36
2022-09-09T18:07:51.218Z,18.31
2022-09-09T18:10:28.358Z,18.27
2022-09-09T18:13:02.432Z,18.23
2022-09-09T18:15:49.319Z,18.19
2022-09-09T18:18:24.519Z,18.13
2022-09-09T18:21:07.944Z,18.06
2022-09-09T18:23:47.229Z,17.99
2022-09-09T18:26:25.216Z,17.93
2022-09-09T18:29:03.517Z,17.87
2022-09-09T18:31:37.925Z,17.81
2022-09-09T18:34:15.211Z,17.76
2022-09-09T18:36:57.179Z,17.72
2022-09-09T18:39:34.589Z,17.68
2022-09-09T18:42:09.970Z,17.64
2022-09-09T18:44:46.576Z,17.60
2022-09-09T18:47:24.818Z,17.54
2022-09-09T18:49:59.447Z,17.50
2022-09-09T18:52:38.652Z,17.47
2022-09-09T18:55:17.674Z,17.42
2022-09-09T18:57:53.241Z,17.38
2022-09-09T19:00:37.211Z,17.35
2022-09-09T19:03:11.879Z,17.30
2022-09-09T19:05:48.508Z,17.27
2022-09-09T19:08:26.580Z,17.25
2022-09-09T19:11:03.260Z,17.22
2022-09-09T19:13:44.958Z,17.20
2022-09-09T19:16:21.163Z,17.18
2022-09-09T19:18:55.365Z,17.15
2022-09-09T19:21:31.841Z,17.11
2022-09-09T19:24:08.116Z,17.08
2022-09-09T19:26:46.490Z,17.02
2022-09-09T19:29:22.798Z,17.00
2022-09-09T19:34:53.632Z,16.93
2022-09-09T19:37:27.663Z,16.91
2022-09-09T19:40:12.714Z,16.90
2022-09-09T19:42:48.912Z,16.88
2022-09-09T19:45:28.055Z,16.84
2022-09-09T19:48:03.393Z,16.82
2022-09-09T19:50:38.423Z,16.80
2022-09-09T19:53:12.456Z,16.80
2022-09-09T19:55:49.210Z,16.79
2022-09-09T19:58:26.977Z,16.78
2022-09-09T20:01:06.124Z,16.77
2022-09-09T20:03:40.197Z,16.77
2022-09-09T20:06:14.370Z,16.77
2022-09-09T20:08:49.393Z,16.76
2022-09-09T20:11:23.693Z,16.75
2022-09-09T20:13:56.912Z,16.71
2022-09-09T20:16:32.555Z,16.74
2022-09-09T20:19:08.041Z,16.73
2022-09-09T20:21:47.262Z,16.76
2022-09-09T20:24:26.698Z,16.78
2022-09-09T20:27:02.136Z,16.78
2022-09-09T20:29:34.380Z,16.80
2022-09-09T20:32:07.158Z,16.81
2022-09-09T20:34:39.579Z,16.82
2022-09-09T20:37:12.074Z,16.83
2022-09-09T20:39:46.488Z,16.83
2022-09-09T20:42:20.447Z,16.83
2022-09-09T20:44:52.893Z,16.83
2022-09-09T20:47:25.144Z,16.84
2022-09-09T20:49:58.277Z,16.85
2022-09-09T20:52:30.395Z,16.85
2022-09-09T20:55:02.654Z,16.84
2022-09-09T20:57:35.223Z,16.84
2022-09-09T21:00:10.179Z,16.82
2022-09-09T21:02:42.371Z,16.81
2022-09-09T21:05:14.850Z,16.81
2022-09-09T21:07:47.258Z,16.80
2022-09-09T21:10:23.227Z,16.80
2022-09-09T21:12:55.778Z,16.80
2022-09-09T21:15:41.314Z,16.79
2022-09-09T21:18:13.885Z,16.78
2022-09-09T21:20:47.236Z,16.77
2022-09-09T21:23:20.619Z,16.76
2022-09-09T21:25:55.082Z,16.78
2022-09-09T21:28:27.737Z,16.79
2022-09-09T21:30:59.819Z,16.79
2022-09-09T21:33:32.804Z,16.76
2022-09-09T21:36:09.488Z,16.71
2022-09-09T21:38:42.787Z,16.70
2022-09-09T21:41:17.557Z,16.68
2022-09-09T21:43:55.151Z,16.65
2022-09-09T21:46:28.294Z,16.64
2022-09-09T21:49:03.466Z,16.64
2022-09-09T21:51:35.772Z,16.63
2022-09-09T21:54:08.150Z,16.61
2022-09-09T21:56:40.727Z,16.60
2022-09-09T21:59:12.908Z,16.58
2022-09-09T22:01:46.260Z,16.60
2022-09-09T22:04:21.535Z,16.58
2022-09-09T22:06:53.813Z,16.59
2022-09-09T22:09:26.294Z,16.59
2022-09-09T22:12:00.454Z,16.59
2022-09-09T22:14:33.228Z,16.58
2022-09-09T22:17:07.222Z,16.56
2022-09-09T22:19:40.817Z,16.55
2022-09-09T22:22:13.339Z,16.55
2022-09-09T22:24:45.683Z,16.56
2022-09-09T22:27:17.984Z,16.57
2022-09-09T22:29:50.152Z,16.56
2022-09-09T22:32:22.629Z,16.54
2022-09-09T22:34:54.762Z,16.52
2022-09-09T22:37:26.994Z,16.50
2022-09-09T22:39:59.210Z,16.47
2022-09-09T22:42:34.961Z,16.45
2022-09-09T22:45:08.469Z,16.40
2022-09-09T22:47:42.495Z,16.38
2022-09-09T22:50:14.669Z,16.36
2022-09-09T22:52:47.488Z,16.34
2022-09-09T22:55:20.081Z,16.33
2022-09-09T22:57:52.316Z,16.32
2022-09-09T23:00:24.683Z,16.29
2022-09-09T23:02:57.403Z,16.26
2022-09-09T23:05:30.692Z,16.26
2022-09-09T23:08:06.177Z,16.24
2022-09-09T23:10:43.283Z,16.25
2022-09-09T23:13:15.699Z,16.26
2022-09-09T23:15:48.567Z,16.28
2022-09-09T23:18:22.347Z,16.27
2022-09-09T23:21:01.994Z,16.25
2022-09-09T23:23:34.359Z,16.22
2022-09-09T23:26:07.333Z,16.20
2022-09-09T23:28:43.775Z,16.19
2022-09-09T23:31:18.820Z,16.21
2022-09-09T23:33:51.287Z,16.21
2022-09-09T23:36:26.334Z,16.23
2022-09-09T23:38:59.025Z,16.24
2022-09-09T23:41:32.256Z,16.27
2022-09-09T23:44:05.504Z,16.27
2022-09-09T23:46:38.225Z,16.28
2022-09-09T23:49:10.454Z,16.31
2022-09-09T23:51:42.664Z,16.33
2022-09-09T23:54:15.077Z,16.30
2022-09-09T23:56:47.669Z,16.28
2022-09-09T23:59:20.690Z,16.28
